sensor_id;sensor_type;location;lat;lon;timestamp;P1;durP1;ratioP1;P2;durP2;ratioP2
47866;SDS011;33628;50.806;11.586;2023-09-18T00:00:15;8.00;;;5.07;;
47866;SDS011;33628;50.806;11.586;2023-09-18T00:02:42;5.63;;;4.95;;
47866;SDS011;33628;50.806;11.586;2023-09-18T00:05:09;8.07;;;4.82;;
47866;SDS011;33628;50.806;11.586;2023-09-18T00:07:36;5.97;;;5.07;;
47866;SDS011;33628;50.806;11.586;2023-09-18T00:10:03;5.65;;;4.85;;
47866;SDS011;33628;50.806;11.586;2023-09-18T00:12:31;6.47;;;4.85;;
47866;SDS011;33628;50.806;11.586;2023-09-18T00:14:58;7.45;;;4.90;;
47866;SDS011;33628;50.806;11.586;2023-09-18T00:17:24;6.45;;;4.57;;
47866;SDS011;33628;50.806;11.586;2023-09-18T00:19:51;5.93;;;5.32;;
47866;SDS011;33628;50.806;11.586;2023-09-18T00:22:17;6.65;;;5.28;;
47866;SDS011;33628;50.806;11.586;2023-09-18T00:24:46;6.80;;;5.65;;
47866;SDS011;33628;50.806;11.586;2023-09-18T00:27:13;7.20;;;5.05;;
47866;SDS011;33628;50.806;11.586;2023-09-18T00:29:41;12.38;;;5.18;;
47866;SDS011;33628;50.806;11.586;2023-09-18T00:32:08;6.20;;;5.03;;
47866;SDS011;33628;50.806;11.586;2023-09-18T00:34:35;7.13;;;5.65;;
47866;SDS011;33628;50.806;11.586;2023-09-18T00:37:02;6.53;;;4.90;;
47866;SDS011;33628;50.806;11.586;2023-09-18T00:39:28;7.45;;;5.20;;
47866;SDS011;33628;50.806;11.586;2023-09-18T00:41:56;6.82;;;5.25;;
47866;SDS011;33628;50.806;11.586;2023-09-18T00:44:23;7.78;;;6.00;;
47866;SDS011;33628;50.806;11.586;2023-09-18T00:46:54;6.05;;;5.15;;
47866;SDS011;33628;50.806;11.586;2023-09-18T00:49:21;6.65;;;5.43;;
47866;SDS011;33628;50.806;11.586;2023-09-18T00:51:49;9.32;;;5.40;;
47866;SDS011;33628;50.806;11.586;2023-09-18T00:54:16;7.13;;;5.07;;
47866;SDS011;33628;50.806;11.586;2023-09-18T00:56:44;6.57;;;4.70;;
47866;SDS011;33628;50.806;11.586;2023-09-18T00:59:12;7.25;;;4.95;;
47866;SDS011;33628;50.806;11.586;2023-09-18T01:01:39;5.93;;;4.90;;
47866;SDS011;33628;50.806;11.586;2023-09-18T01:04:08;6.50;;;5.43;;
47866;SDS011;33628;50.806;11.586;2023-09-18T01:06:37;9.40;;;5.78;;
47866;SDS011;33628;50.806;11.586;2023-09-18T01:09:04;5.53;;;4.47;;
47866;SDS011;33628;50.806;11.586;2023-09-18T01:11:40;6.25;;;4.63;;
47866;SDS011;33628;50.806;11.586;2023-09-18T01:14:13;8.15;;;5.57;;
47866;SDS011;33628;50.806;11.586;2023-09-18T01:16:44;6.80;;;5.15;;
47866;SDS011;33628;50.806;11.586;2023-09-18T01:19:17;8.05;;;5.10;;
47866;SDS011;33628;50.806;11.586;2023-09-18T01:22:01;6.25;;;5.03;;
47866;SDS011;33628;50.806;11.586;2023-09-18T01:24:29;6.10;;;4.75;;
47866;SDS011;33628;50.806;11.586;2023-09-18T01:26:57;5.95;;;4.72;;
47866;SDS011;33628;50.806;11.586;2023-09-18T01:29:23;5.70;;;4.35;;
47866;SDS011;33628;50.806;11.586;2023-09-18T01:31:50;5.05;;;4.55;;
47866;SDS011;33628;50.806;11.586;2023-09-18T01:34:18;7.10;;;4.78;;
47866;SDS011;33628;50.806;11.586;2023-09-18T01:36:45;9.18;;;4.90;;
47866;SDS011;33628;50.806;11.586;2023-09-18T01:39:12;7.35;;;4.88;;
47866;SDS011;33628;50.806;11.586;2023-09-18T01:41:40;8.40;;;5.05;;
47866;SDS011;33628;50.806;11.586;2023-09-18T01:44:07;7.07;;;5.85;;
47866;SDS011;33628;50.806;11.586;2023-09-18T01:46:34;7.38;;;5.47;;
47866;SDS011;33628;50.806;11.586;2023-09-18T01:49:02;7.55;;;5.57;;
47866;SDS011;33628;50.806;11.586;2023-09-18T01:51:29;8.35;;;5.97;;
47866;SDS011;33628;50.806;11.586;2023-09-18T01:53:56;7.28;;;5.53;;
47866;SDS011;33628;50.806;11.586;2023-09-18T01:56:23;7.18;;;5.63;;
47866;SDS011;33628;50.806;11.586;2023-09-18T01:58:51;8.00;;;5.18;;
47866;SDS011;33628;50.806;11.586;2023-09-18T02:01:18;6.60;;;5.25;;
47866;SDS011;33628;50.806;11.586;2023-09-18T02:03:45;6.95;;;6.25;;
47866;SDS011;33628;50.806;11.586;2023-09-18T02:06:13;5.97;;;5.30;;
47866;SDS011;33628;50.806;11.586;2023-09-18T02:08:39;7.30;;;6.00;;
47866;SDS011;33628;50.806;11.586;2023-09-18T02:11:06;7.40;;;5.95;;
47866;SDS011;33628;50.806;11.586;2023-09-18T02:13:32;8.40;;;5.85;;
47866;SDS011;33628;50.806;11.586;2023-09-18T02:16:00;7.18;;;5.43;;
47866;SDS011;33628;50.806;11.586;2023-09-18T02:18:29;6.40;;;4.93;;
47866;SDS011;33628;50.806;11.586;2023-09-18T02:20:55;6.85;;;4.75;;
47866;SDS011;33628;50.806;11.586;2023-09-18T02:23:22;6.15;;;5.13;;
47866;SDS011;33628;50.806;11.586;2023-09-18T02:25:54;8.32;;;5.25;;
47866;SDS011;33628;50.806;11.586;2023-09-18T02:28:22;5.45;;;4.65;;
47866;SDS011;33628;50.806;11.586;2023-09-18T02:30:48;5.72;;;5.18;;
47866;SDS011;33628;50.806;11.586;2023-09-18T02:33:16;7.45;;;5.10;;
47866;SDS011;33628;50.806;11.586;2023-09-18T02:35:43;6.35;;;4.95;;
47866;SDS011;33628;50.806;11.586;2023-09-18T02:38:10;7.47;;;5.10;;
47866;SDS011;33628;50.806;11.586;2023-09-18T02:40:36;6.72;;;5.43;;
47866;SDS011;33628;50.806;11.586;2023-09-18T02:43:03;6.07;;;5.07;;
47866;SDS011;33628;50.806;11.586;2023-09-18T02:45:31;5.95;;;4.78;;
47866;SDS011;33628;50.806;11.586;2023-09-18T02:47:57;7.85;;;5.30;;
47866;SDS011;33628;50.806;11.586;2023-09-18T02:50:25;6.82;;;5.10;;
47866;SDS011;33628;50.806;11.586;2023-09-18T02:52:52;9.20;;;5.30;;
47866;SDS011;33628;50.806;11.586;2023-09-18T02:55:18;9.77;;;5.53;;
47866;SDS011;33628;50.806;11.586;2023-09-18T02:57:45;6.70;;;5.40;;
47866;SDS011;33628;50.806;11.586;2023-09-18T03:00:12;8.73;;;5.90;;
47866;SDS011;33628;50.806;11.586;2023-09-18T03:02:39;6.35;;;5.15;;
47866;SDS011;33628;50.806;11.586;2023-09-18T03:05:06;6.75;;;5.80;;
47866;SDS011;33628;50.806;11.586;2023-09-18T03:07:36;7.43;;;5.75;;
47866;SDS011;33628;50.806;11.586;2023-09-18T03:10:03;9.85;;;6.30;;
47866;SDS011;33628;50.806;11.586;2023-09-18T03:12:31;9.55;;;6.20;;
47866;SDS011;33628;50.806;11.586;2023-09-18T03:14:57;9.32;;;6.43;;
47866;SDS011;33628;50.806;11.586;2023-09-18T03:17:24;7.13;;;5.47;;
47866;SDS011;33628;50.806;11.586;2023-09-18T03:19:51;6.35;;;5.38;;
47866;SDS011;33628;50.806;11.586;2023-09-18T03:22:18;8.20;;;6.05;;
47866;SDS011;33628;50.806;11.586;2023-09-18T03:24:46;6.50;;;5.60;;
47866;SDS011;33628;50.806;11.586;2023-09-18T03:27:13;6.45;;;5.75;;
47866;SDS011;33628;50.806;11.586;2023-09-18T03:29:39;9.55;;;5.95;;
47866;SDS011;33628;50.806;11.586;2023-09-18T03:32:07;7.00;;;6.20;;
47866;SDS011;33628;50.806;11.586;2023-09-18T03:34:38;6.47;;;5.82;;
47866;SDS011;33628;50.806;11.586;2023-09-18T03:37:04;9.45;;;5.97;;
47866;SDS011;33628;50.806;11.586;2023-09-18T03:39:31;8.70;;;5.78;;
47866;SDS011;33628;50.806;11.586;2023-09-18T03:41:59;9.30;;;6.15;;
47866;SDS011;33628;50.806;11.586;2023-09-18T03:44:25;8.52;;;6.45;;
47866;SDS011;33628;50.806;11.586;2023-09-18T03:46:52;7.88;;;5.82;;
47866;SDS011;33628;50.806;11.586;2023-09-18T03:49:19;8.85;;;6.00;;
47866;SDS011;33628;50.806;11.586;2023-09-18T03:51:46;8.60;;;6.32;;
47866;SDS011;33628;50.806;11.586;2023-09-18T03:54:13;7.25;;;6.15;;
47866;SDS011;33628;50.806;11.586;2023-09-18T03:56:39;8.57;;;6.18;;
47866;SDS011;33628;50.806;11.586;2023-09-18T03:59:07;7.22;;;5.35;;
47866;SDS011;33628;50.806;11.586;2023-09-18T04:01:34;9.48;;;5.90;;
47866;SDS011;33628;50.806;11.586;2023-09-18T04:04:02;6.82;;;5.60;;
47866;SDS011;33628;50.806;11.586;2023-09-18T04:06:35;7.18;;;5.88;;
47866;SDS011;33628;50.806;11.586;2023-09-18T04:09:04;7.18;;;6.07;;
47866;SDS011;33628;50.806;11.586;2023-09-18T04:11:30;7.63;;;5.82;;
47866;SDS011;33628;50.806;11.586;2023-09-18T04:13:58;7.68;;;6.05;;
47866;SDS011;33628;50.806;11.586;2023-09-18T04:16:26;9.07;;;6.20;;
47866;SDS011;33628;50.806;11.586;2023-09-18T04:19:03;8.65;;;5.70;;
47866;SDS011;33628;50.806;11.586;2023-09-18T04:21:30;7.78;;;6.15;;
47866;SDS011;33628;50.806;11.586;2023-09-18T04:23:57;8.20;;;6.10;;
47866;SDS011;33628;50.806;11.586;2023-09-18T04:26:24;6.40;;;5.70;;
47866;SDS011;33628;50.806;11.586;2023-09-18T04:28:56;9.82;;;5.80;;
47866;SDS011;33628;50.806;11.586;2023-09-18T04:31:22;8.93;;;6.53;;
47866;SDS011;33628;50.806;11.586;2023-09-18T04:33:51;10.82;;;6.25;;
47866;SDS011;33628;50.806;11.586;2023-09-18T04:36:17;7.88;;;5.95;;
47866;SDS011;33628;50.806;11.586;2023-09-18T04:38:44;7.40;;;6.30;;
47866;SDS011;33628;50.806;11.586;2023-09-18T04:41:10;8.32;;;6.07;;
47866;SDS011;33628;50.806;11.586;2023-09-18T04:43:37;7.97;;;6.35;;
47866;SDS011;33628;50.806;11.586;2023-09-18T04:46:04;9.10;;;5.97;;
47866;SDS011;33628;50.806;11.586;2023-09-18T04:48:32;9.20;;;6.43;;
47866;SDS011;33628;50.806;11.586;2023-09-18T04:51:01;7.55;;;5.90;;
47866;SDS011;33628;50.806;11.586;2023-09-18T04:53:30;8.80;;;5.93;;
47866;SDS011;33628;50.806;11.586;2023-09-18T04:55:58;7.80;;;5.70;;
47866;SDS011;33628;50.806;11.586;2023-09-18T04:58:26;6.28;;;5.60;;
47866;SDS011;33628;50.806;11.586;2023-09-18T05:00:53;11.35;;;5.90;;
47866;SDS011;33628;50.806;11.586;2023-09-18T05:03:20;8.73;;;5.78;;
47866;SDS011;33628;50.806;11.586;2023-09-18T05:05:47;7.03;;;5.68;;
47866;SDS011;33628;50.806;11.586;2023-09-18T05:08:18;7.95;;;5.25;;
47866;SDS011;33628;50.806;11.586;2023-09-18T05:10:45;6.35;;;5.40;;
47866;SDS011;33628;50.806;11.586;2023-09-18T05:13:13;8.35;;;5.18;;
47866;SDS011;33628;50.806;11.586;2023-09-18T05:15:40;8.27;;;5.00;;
47866;SDS011;33628;50.806;11.586;2023-09-18T05:18:06;9.48;;;4.95;;
47866;SDS011;33628;50.806;11.586;2023-09-18T05:20:34;7.72;;;6.07;;
47866;SDS011;33628;50.806;11.586;2023-09-18T05:23:01;6.47;;;5.55;;
47866;SDS011;33628;50.806;11.586;2023-09-18T05:25:29;7.60;;;5.68;;
47866;SDS011;33628;50.806;11.586;2023-09-18T05:28:00;8.60;;;6.07;;
47866;SDS011;33628;50.806;11.586;2023-09-18T05:30:27;7.85;;;5.57;;
47866;SDS011;33628;50.806;11.586;2023-09-18T05:32:55;8.63;;;6.50;;
47866;SDS011;33628;50.806;11.586;2023-09-18T05:35:22;8.32;;;6.18;;
47866;SDS011;33628;50.806;11.586;2023-09-18T05:37:49;6.68;;;5.93;;
47866;SDS011;33628;50.806;11.586;2023-09-18T05:40:22;8.32;;;5.55;;
47866;SDS011;33628;50.806;11.586;2023-09-18T05:42:51;6.50;;;5.00;;
47866;SDS011;33628;50.806;11.586;2023-09-18T05:45:17;7.50;;;5.80;;
47866;SDS011;33628;50.806;11.586;2023-09-18T05:47:44;10.70;;;6.30;;
47866;SDS011;33628;50.806;11.586;2023-09-18T05:50:12;8.85;;;6.32;;
47866;SDS011;33628;50.806;11.586;2023-09-18T05:52:42;9.32;;;6.70;;
47866;SDS011;33628;50.806;11.586;2023-09-18T05:55:09;9.57;;;6.55;;
47866;SDS011;33628;50.806;11.586;2023-09-18T05:57:36;7.55;;;6.30;;
47866;SDS011;33628;50.806;11.586;2023-09-18T06:00:05;11.85;;;6.78;;
47866;SDS011;33628;50.806;11.586;2023-09-18T06:02:38;8.13;;;5.60;;
47866;SDS011;33628;50.806;11.586;2023-09-18T06:05:06;9.32;;;6.10;;
47866;SDS011;33628;50.806;11.586;2023-09-18T06:07:33;8.45;;;6.63;;
47866;SDS011;33628;50.806;11.586;2023-09-18T06:10:00;8.25;;;6.82;;
47866;SDS011;33628;50.806;11.586;2023-09-18T06:12:26;11.32;;;6.47;;
47866;SDS011;33628;50.806;11.586;2023-09-18T06:14:53;8.57;;;6.65;;
47866;SDS011;33628;50.806;11.586;2023-09-18T06:17:21;10.43;;;6.72;;
47866;SDS011;33628;50.806;11.586;2023-09-18T06:19:48;10.48;;;6.88;;
47866;SDS011;33628;50.806;11.586;2023-09-18T06:22:14;10.77;;;7.15;;
47866;SDS011;33628;50.806;11.586;2023-09-18T06:24:41;10.93;;;7.40;;
47866;SDS011;33628;50.806;11.586;2023-09-18T06:27:08;9.60;;;6.55;;
47866;SDS011;33628;50.806;11.586;2023-09-18T06:29:38;12.77;;;6.63;;
47866;SDS011;33628;50.806;11.586;2023-09-18T06:32:05;12.05;;;7.50;;
47866;SDS011;33628;50.806;11.586;2023-09-18T06:34:33;10.82;;;7.20;;
47866;SDS011;33628;50.806;11.586;2023-09-18T06:37:00;10.98;;;6.85;;
47866;SDS011;33628;50.806;11.586;2023-09-18T06:39:27;11.82;;;7.35;;
47866;SDS011;33628;50.806;11.586;2023-09-18T06:41:53;11.68;;;7.82;;
47866;SDS011;33628;50.806;11.586;2023-09-18T06:44:20;9.52;;;6.85;;
47866;SDS011;33628;50.806;11.586;2023-09-18T06:46:49;9.57;;;7.50;;
47866;SDS011;33628;50.806;11.586;2023-09-18T06:49:15;9.40;;;7.07;;
47866;SDS011;33628;50.806;11.586;2023-09-18T06:51:43;9.27;;;7.43;;
47866;SDS011;33628;50.806;11.586;2023-09-18T06:54:10;11.25;;;6.95;;
47866;SDS011;33628;50.806;11.586;2023-09-18T06:56:37;8.73;;;7.18;;
47866;SDS011;33628;50.806;11.586;2023-09-18T06:59:04;8.57;;;7.40;;
47866;SDS011;33628;50.806;11.586;2023-09-18T07:01:31;9.00;;;6.68;;
47866;SDS011;33628;50.806;11.586;2023-09-18T07:03:58;10.75;;;6.72;;
47866;SDS011;33628;50.806;11.586;2023-09-18T07:06:25;8.77;;;6.35;;
47866;SDS011;33628;50.806;11.586;2023-09-18T07:08:54;7.90;;;6.55;;
47866;SDS011;33628;50.806;11.586;2023-09-18T07:11:20;8.57;;;6.50;;
47866;SDS011;33628;50.806;11.586;2023-09-18T07:13:47;11.50;;;7.20;;
47866;SDS011;33628;50.806;11.586;2023-09-18T07:16:14;11.70;;;6.95;;
47866;SDS011;33628;50.806;11.586;2023-09-18T07:18:40;8.23;;;6.82;;
47866;SDS011;33628;50.806;11.586;2023-09-18T07:21:07;7.43;;;6.60;;
47866;SDS011;33628;50.806;11.586;2023-09-18T07:23:34;9.93;;;6.38;;
47866;SDS011;33628;50.806;11.586;2023-09-18T07:26:04;12.15;;;6.85;;
47866;SDS011;33628;50.806;11.586;2023-09-18T07:28:32;10.35;;;6.40;;
47866;SDS011;33628;50.806;11.586;2023-09-18T07:31:03;9.15;;;6.25;;
47866;SDS011;33628;50.806;11.586;2023-09-18T07:33:31;9.48;;;6.80;;
47866;SDS011;33628;50.806;11.586;2023-09-18T07:35:57;7.60;;;5.97;;
47866;SDS011;33628;50.806;11.586;2023-09-18T07:38:24;13.65;;;6.15;;
47866;SDS011;33628;50.806;11.586;2023-09-18T07:40:51;10.35;;;6.70;;
47866;SDS011;33628;50.806;11.586;2023-09-18T07:43:19;10.20;;;6.78;;
47866;SDS011;33628;50.806;11.586;2023-09-18T07:45:46;11.05;;;6.20;;
47866;SDS011;33628;50.806;11.586;2023-09-18T07:48:12;10.05;;;6.30;;
47866;SDS011;33628;50.806;11.586;2023-09-18T07:50:41;7.75;;;6.60;;
47866;SDS011;33628;50.806;11.586;2023-09-18T07:53:10;8.20;;;6.13;;
47866;SDS011;33628;50.806;11.586;2023-09-18T07:55:36;8.48;;;5.90;;
47866;SDS011;33628;50.806;11.586;2023-09-18T07:58:03;12.82;;;6.25;;
47866;SDS011;33628;50.806;11.586;2023-09-18T08:00:32;7.95;;;6.32;;
47866;SDS011;33628;50.806;11.586;2023-09-18T08:02:59;10.45;;;6.15;;
47866;SDS011;33628;50.806;11.586;2023-09-18T08:05:26;9.05;;;6.13;;
47866;SDS011;33628;50.806;11.586;2023-09-18T08:07:54;7.63;;;5.95;;
47866;SDS011;33628;50.806;11.586;2023-09-18T08:10:22;11.45;;;5.82;;
47866;SDS011;33628;50.806;11.586;2023-09-18T08:12:52;6.55;;;5.90;;
47866;SDS011;33628;50.806;11.586;2023-09-18T08:15:19;6.93;;;5.45;;
47866;SDS011;33628;50.806;11.586;2023-09-18T08:17:48;6.07;;;5.50;;
47866;SDS011;33628;50.806;11.586;2023-09-18T08:20:15;7.38;;;5.78;;
47866;SDS011;33628;50.806;11.586;2023-09-18T08:22:42;7.38;;;6.30;;
47866;SDS011;33628;50.806;11.586;2023-09-18T08:25:09;7.38;;;4.82;;
47866;SDS011;33628;50.806;11.586;2023-09-18T08:27:39;7.05;;;5.60;;
47866;SDS011;33628;50.806;11.586;2023-09-18T08:30:10;11.23;;;6.10;;
47866;SDS011;33628;50.806;11.586;2023-09-18T08:32:38;9.05;;;6.40;;
47866;SDS011;33628;50.806;11.586;2023-09-18T08:35:07;10.73;;;6.20;;
47866;SDS011;33628;50.806;11.586;2023-09-18T08:37:34;9.52;;;6.45;;
47866;SDS011;33628;50.806;11.586;2023-09-18T08:40:01;9.13;;;6.45;;
47866;SDS011;33628;50.806;11.586;2023-09-18T08:42:35;12.15;;;8.02;;
47866;SDS011;33628;50.806;11.586;2023-09-18T08:45:05;11.57;;;7.03;;
47866;SDS011;33628;50.806;11.586;2023-09-18T08:47:35;9.25;;;6.05;;
47866;SDS011;33628;50.806;11.586;2023-09-18T08:50:04;7.10;;;5.57;;
47866;SDS011;33628;50.806;11.586;2023-09-18T08:52:33;9.70;;;6.70;;
47866;SDS011;33628;50.806;11.586;2023-09-18T08:55:00;7.35;;;6.10;;
47866;SDS011;33628;50.806;11.586;2023-09-18T08:57:27;8.25;;;5.88;;
47866;SDS011;33628;50.806;11.586;2023-09-18T08:59:55;9.05;;;6.38;;
47866;SDS011;33628;50.806;11.586;2023-09-18T09:02:22;8.75;;;6.25;;
47866;SDS011;33628;50.806;11.586;2023-09-18T09:04:49;7.90;;;5.85;;
47866;SDS011;33628;50.806;11.586;2023-09-18T09:07:17;8.77;;;5.65;;
47866;SDS011;33628;50.806;11.586;2023-09-18T09:09:44;6.85;;;5.10;;
47866;SDS011;33628;50.806;11.586;2023-09-18T09:12:10;7.78;;;5.05;;
47866;SDS011;33628;50.806;11.586;2023-09-18T09:14:37;12.15;;;5.47;;
47866;SDS011;33628;50.806;11.586;2023-09-18T09:17:04;8.23;;;5.15;;
47866;SDS011;33628;50.806;11.586;2023-09-18T09:19:32;8.10;;;5.38;;
47866;SDS011;33628;50.806;11.586;2023-09-18T09:22:02;7.97;;;5.10;;
47866;SDS011;33628;50.806;11.586;2023-09-18T09:24:37;13.82;;;4.40;;
47866;SDS011;33628;50.806;11.586;2023-09-18T09:27:05;9.90;;;5.55;;
47866;SDS011;33628;50.806;11.586;2023-09-18T09:29:31;6.20;;;4.40;;
47866;SDS011;33628;50.806;11.586;2023-09-18T09:32:11;8.90;;;5.35;;
47866;SDS011;33628;50.806;11.586;2023-09-18T09:34:40;8.43;;;5.18;;
47866;SDS011;33628;50.806;11.586;2023-09-18T09:37:07;6.97;;;5.25;;
47866;SDS011;33628;50.806;11.586;2023-09-18T09:39:34;5.53;;;4.65;;
47866;SDS011;33628;50.806;11.586;2023-09-18T09:42:02;12.65;;;5.35;;
47866;SDS011;33628;50.806;11.586;2023-09-18T09:44:31;12.02;;;4.45;;
47866;SDS011;33628;50.806;11.586;2023-09-18T09:46:58;8.10;;;4.40;;
47866;SDS011;33628;50.806;11.586;2023-09-18T09:49:25;6.90;;;4.07;;
47866;SDS011;33628;50.806;11.586;2023-09-18T09:51:59;13.63;;;5.68;;
47866;SDS011;33628;50.806;11.586;2023-09-18T09:54:35;8.88;;;4.57;;
47866;SDS011;33628;50.806;11.586;2023-09-18T09:57:07;8.00;;;3.88;;
47866;SDS011;33628;50.806;11.586;2023-09-18T09:59:34;9.02;;;4.35;;
47866;SDS011;33628;50.806;11.586;2023-09-18T10:02:01;10.15;;;4.20;;
47866;SDS011;33628;50.806;11.586;2023-09-18T10:04:28;7.70;;;4.30;;
47866;SDS011;33628;50.806;11.586;2023-09-18T10:06:56;8.68;;;4.50;;
47866;SDS011;33628;50.806;11.586;2023-09-18T10:09:25;10.55;;;4.60;;
47866;SDS011;33628;50.806;11.586;2023-09-18T10:11:54;11.70;;;4.20;;
47866;SDS011;33628;50.806;11.586;2023-09-18T10:14:28;5.40;;;4.03;;
47866;SDS011;33628;50.806;11.586;2023-09-18T10:16:57;8.80;;;4.80;;
47866;SDS011;33628;50.806;11.586;2023-09-18T10:19:27;7.55;;;4.30;;
47866;SDS011;33628;50.806;11.586;2023-09-18T10:22:00;12.80;;;5.03;;
47866;SDS011;33628;50.806;11.586;2023-09-18T10:24:33;12.63;;;5.50;;
47866;SDS011;33628;50.806;11.586;2023-09-18T10:27:03;8.40;;;4.75;;
47866;SDS011;33628;50.806;11.586;2023-09-18T10:29:33;10.23;;;4.93;;
47866;SDS011;33628;50.806;11.586;2023-09-18T10:32:01;11.77;;;4.75;;
47866;SDS011;33628;50.806;11.586;2023-09-18T10:34:30;11.30;;;5.13;;
47866;SDS011;33628;50.806;11.586;2023-09-18T10:36:57;12.90;;;5.57;;
47866;SDS011;33628;50.806;11.586;2023-09-18T10:39:26;12.50;;;5.07;;
47866;SDS011;33628;50.806;11.586;2023-09-18T10:41:55;9.15;;;4.85;;
47866;SDS011;33628;50.806;11.586;2023-09-18T10:44:27;9.43;;;4.50;;
47866;SDS011;33628;50.806;11.586;2023-09-18T10:46:55;7.57;;;5.20;;
47866;SDS011;33628;50.806;11.586;2023-09-18T10:49:22;7.55;;;4.65;;
47866;SDS011;33628;50.806;11.586;2023-09-18T10:51:49;15.23;;;4.50;;
47866;SDS011;33628;50.806;11.586;2023-09-18T10:54:20;9.20;;;4.07;;
47866;SDS011;33628;50.806;11.586;2023-09-18T10:56:48;8.63;;;4.15;;
47866;SDS011;33628;50.806;11.586;2023-09-18T10:59:15;7.78;;;4.45;;
47866;SDS011;33628;50.806;11.586;2023-09-18T11:01:43;9.40;;;3.80;;
47866;SDS011;33628;50.806;11.586;2023-09-18T11:04:11;7.07;;;4.00;;
47866;SDS011;33628;50.806;11.586;2023-09-18T11:09:29;5.72;;;4.00;;
47866;SDS011;33628;50.806;11.586;2023-09-18T11:12:02;5.60;;;3.42;;
47866;SDS011;33628;50.806;11.586;2023-09-18T11:14:41;8.85;;;3.70;;
47866;SDS011;33628;50.806;11.586;2023-09-18T11:20:03;6.15;;;3.50;;
47866;SDS011;33628;50.806;11.586;2023-09-18T11:22:35;7.25;;;3.90;;
47866;SDS011;33628;50.806;11.586;2023-09-18T11:28:14;7.95;;;3.90;;
47866;SDS011;33628;50.806;11.586;2023-09-18T11:30:49;9.23;;;4.03;;
47866;SDS011;33628;50.806;11.586;2023-09-18T11:33:27;10.23;;;3.67;;
47866;SDS011;33628;50.806;11.586;2023-09-18T11:36:01;6.18;;;3.70;;
47866;SDS011;33628;50.806;11.586;2023-09-18T11:38:33;5.68;;;3.38;;
47866;SDS011;33628;50.806;11.586;2023-09-18T11:43:47;6.47;;;3.38;;
47866;SDS011;33628;50.806;11.586;2023-09-18T11:46:17;8.13;;;3.65;;
47866;SDS011;33628;50.806;11.586;2023-09-18T11:48:46;6.15;;;3.63;;
47866;SDS011;33628;50.806;11.586;2023-09-18T11:51:21;8.85;;;4.22;;
47866;SDS011;33628;50.806;11.586;2023-09-18T11:53:49;6.00;;;3.80;;
47866;SDS011;33628;50.806;11.586;2023-09-18T11:56:20;10.05;;;3.78;;
47866;SDS011;33628;50.806;11.586;2023-09-18T11:58:48;7.55;;;3.92;;
47866;SDS011;33628;50.806;11.586;2023-09-18T12:01:15;7.07;;;3.45;;
47866;SDS011;33628;50.806;11.586;2023-09-18T12:03:43;5.63;;;3.75;;
47866;SDS011;33628;50.806;11.586;2023-09-18T12:06:10;9.82;;;3.80;;
47866;SDS011;33628;50.806;11.586;2023-09-18T12:08:42;5.82;;;3.22;;
47866;SDS011;33628;50.806;11.586;2023-09-18T12:11:09;9.82;;;3.95;;
47866;SDS011;33628;50.806;11.586;2023-09-18T12:13:42;4.47;;;3.15;;
47866;SDS011;33628;50.806;11.586;2023-09-18T12:16:09;7.97;;;3.70;;
47866;SDS011;33628;50.806;11.586;2023-09-18T12:18:36;6.50;;;3.78;;
47866;SDS011;33628;50.806;11.586;2023-09-18T12:21:05;8.32;;;3.08;;
47866;SDS011;33628;50.806;11.586;2023-09-18T12:23:38;9.20;;;3.70;;
47866;SDS011;33628;50.806;11.586;2023-09-18T12:26:07;7.18;;;3.40;;
47866;SDS011;33628;50.806;11.586;2023-09-18T12:28:34;5.60;;;4.05;;
47866;SDS011;33628;50.806;11.586;2023-09-18T12:31:01;6.82;;;3.70;;
47866;SDS011;33628;50.806;11.586;2023-09-18T12:33:33;4.57;;;3.30;;
47866;SDS011;33628;50.806;11.586;2023-09-18T12:36:01;7.43;;;3.65;;
47866;SDS011;33628;50.806;11.586;2023-09-18T12:38:28;4.55;;;1.92;;
47866;SDS011;33628;50.806;11.586;2023-09-18T12:40:56;5.30;;;1.63;;
47866;SDS011;33628;50.806;11.586;2023-09-18T12:43:31;2.65;;;1.65;;
47866;SDS011;33628;50.806;11.586;2023-09-18T12:45:59;4.65;;;1.58;;
47866;SDS011;33628;50.806;11.586;2023-09-18T12:48:27;4.25;;;1.98;;
47866;SDS011;33628;50.806;11.586;2023-09-18T12:50:53;8.93;;;2.38;;
47866;SDS011;33628;50.806;11.586;2023-09-18T12:53:21;10.85;;;5.25;;
47866;SDS011;33628;50.806;11.586;2023-09-18T12:55:48;6.53;;;3.45;;
47866;SDS011;33628;50.806;11.586;2023-09-18T12:58:18;6.93;;;3.80;;
47866;SDS011;33628;50.806;11.586;2023-09-18T13:00:47;11.25;;;5.22;;
47866;SDS011;33628;50.806;11.586;2023-09-18T13:03:15;9.68;;;4.43;;
47866;SDS011;33628;50.806;11.586;2023-09-18T13:05:42;4.78;;;2.42;;
47866;SDS011;33628;50.806;11.586;2023-09-18T13:08:09;9.52;;;1.90;;
47866;SDS011;33628;50.806;11.586;2023-09-18T13:10:42;3.85;;;1.90;;
47866;SDS011;33628;50.806;11.586;2023-09-18T13:13:16;7.35;;;2.00;;
47866;SDS011;33628;50.806;11.586;2023-09-18T13:15:43;6.53;;;1.92;;
47866;SDS011;33628;50.806;11.586;2023-09-18T13:18:14;3.50;;;1.55;;
47866;SDS011;33628;50.806;11.586;2023-09-18T13:20:42;4.43;;;2.00;;
47866;SDS011;33628;50.806;11.586;2023-09-18T13:23:09;21.98;;;10.32;;
47866;SDS011;33628;50.806;11.586;2023-09-18T13:25:37;19.60;;;9.63;;
47866;SDS011;33628;50.806;11.586;2023-09-18T13:28:06;17.15;;;5.78;;
47866;SDS011;33628;50.806;11.586;2023-09-18T13:30:35;6.25;;;2.47;;
47866;SDS011;33628;50.806;11.586;2023-09-18T13:33:06;5.95;;;2.15;;
47866;SDS011;33628;50.806;11.586;2023-09-18T13:35:35;4.28;;;2.20;;
47866;SDS011;33628;50.806;11.586;2023-09-18T13:38:03;4.63;;;1.73;;
47866;SDS011;33628;50.806;11.586;2023-09-18T13:40:31;6.97;;;2.58;;
47866;SDS011;33628;50.806;11.586;2023-09-18T13:43:02;10.85;;;3.72;;
47866;SDS011;33628;50.806;11.586;2023-09-18T13:45:32;6.63;;;3.28;;
47866;SDS011;33628;50.806;11.586;2023-09-18T13:48:00;8.40;;;2.72;;
47866;SDS011;33628;50.806;11.586;2023-09-18T13:50:27;6.05;;;2.10;;
47866;SDS011;33628;50.806;11.586;2023-09-18T13:52:55;11.80;;;4.90;;
47866;SDS011;33628;50.806;11.586;2023-09-18T13:55:22;6.43;;;2.85;;
47866;SDS011;33628;50.806;11.586;2023-09-18T13:57:49;5.10;;;1.75;;
47866;SDS011;33628;50.806;11.586;2023-09-18T14:00:16;4.82;;;1.55;;
47866;SDS011;33628;50.806;11.586;2023-09-18T14:02:43;5.80;;;1.40;;
47866;SDS011;33628;50.806;11.586;2023-09-18T14:05:10;3.80;;;1.58;;
47866;SDS011;33628;50.806;11.586;2023-09-18T14:07:37;2.95;;;1.30;;
47866;SDS011;33628;50.806;11.586;2023-09-18T14:10:09;6.28;;;1.50;;
47866;SDS011;33628;50.806;11.586;2023-09-18T14:12:36;6.40;;;1.25;;
47866;SDS011;33628;50.806;11.586;2023-09-18T14:15:04;4.38;;;1.60;;
47866;SDS011;33628;50.806;11.586;2023-09-18T14:17:31;5.53;;;1.60;;
47866;SDS011;33628;50.806;11.586;2023-09-18T14:19:58;2.20;;;1.27;;
47866;SDS011;33628;50.806;11.586;2023-09-18T14:22:25;6.18;;;1.40;;
47866;SDS011;33628;50.806;11.586;2023-09-18T14:24:52;3.95;;;1.20;;
47866;SDS011;33628;50.806;11.586;2023-09-18T14:27:20;4.07;;;1.50;;
47866;SDS011;33628;50.806;11.586;2023-09-18T14:29:47;6.53;;;1.23;;
47866;SDS011;33628;50.806;11.586;2023-09-18T14:32:14;5.15;;;1.40;;
47866;SDS011;33628;50.806;11.586;2023-09-18T14:34:40;4.93;;;1.33;;
47866;SDS011;33628;50.806;11.586;2023-09-18T14:37:07;3.65;;;1.20;;
47866;SDS011;33628;50.806;11.586;2023-09-18T14:39:34;4.60;;;1.30;;
47866;SDS011;33628;50.806;11.586;2023-09-18T14:42:01;5.25;;;1.20;;
47866;SDS011;33628;50.806;11.586;2023-09-18T14:44:29;5.43;;;1.40;;
47866;SDS011;33628;50.806;11.586;2023-09-18T14:46:56;2.80;;;1.20;;
47866;SDS011;33628;50.806;11.586;2023-09-18T14:49:24;5.10;;;1.30;;